Time;durP1;ratioP1;P1;durP2;ratioP2;P2;SDS_P1;SDS_P2;PMS_P1;PMS_P2;Temp;Humidity;BMP_temperature;BMP_pressure;BME280_temperature;BME280_humidity;BME280_pressure;Samples;Min_cycle;Max_cycle;Signal;HPM_P1;HPM_P2
2023/03/10 06:00:38;;;;;;;2.93;1.10;;;10.40;97.20;;;;;;1714898;28;20256;-67
2023/03/10 06:01:28;;;;;;;2.05;0.90;;;10.40;97.20;;;;;;1714904;28;20205;-67
2023/03/10 06:02:20;;;;;;;2.63;1.20;;;10.40;97.20;;;;;;1714909;28;20212;-66
2023/03/10 06:03:11;;;;;;;0.90;0.80;;;10.40;97.20;;;;;;1714867;28;20206;-66
2023/03/10 06:04:03;;;;;;;1.57;1.10;;;10.30;97.20;;;;;;1714790;28;20674;-66
2023/03/10 06:04:54;;;;;;;1.58;0.95;;;10.30;97.20;;;;;;1714893;28;20634;-66
2023/03/10 06:05:45;;;;;;;2.30;1.10;;;10.30;97.20;;;;;;1714809;28;20202;-67
2023/03/10 06:06:37;;;;;;;2.47;1.05;;;10.30;97.20;;;;;;1714815;28;20202;-67
2023/03/10 06:07:28;;;;;;;1.35;0.80;;;10.20;97.20;;;;;;1714807;28;20201;-66
2023/03/10 06:08:19;;;;;;;1.65;1.08;;;10.20;97.20;;;;;;1714790;28;20217;-66
2023/03/10 06:09:11;;;;;;;1.77;1.03;;;10.20;97.20;;;;;;1714454;28;20193;-67
2023/03/10 06:10:02;;;;;;;6.47;1.52;;;10.10;97.20;;;;;;1714780;28;20213;-66
2023/03/10 06:10:53;;;;;;;3.30;1.57;;;10.10;97.20;;;;;;1714740;28;20220;-67
2023/03/10 06:11:44;;;;;;;2.00;1.02;;;10.10;97.20;;;;;;1714739;28;20452;-66
2023/03/10 06:12:36;;;;;;;1.57;0.90;;;10.10;97.20;;;;;;1714821;28;20216;-66
2023/03/10 06:13:27;;;;;;;1.80;1.20;;;10.10;97.20;;;;;;1714739;28;20221;-67
2023/03/10 06:14:18;;;;;;;8.23;1.40;;;10.10;97.20;;;;;;1714786;28;20212;-66
2023/03/10 06:15:09;;;;;;;2.47;1.00;;;10.00;97.20;;;;;;1714749;28;20201;-66
2023/03/10 06:16:05;;;;;;;3.42;1.05;;;10.00;97.20;;;;;;1714731;28;20209;-66
2023/03/10 06:16:56;;;;;;;1.48;0.80;;;10.00;97.20;;;;;;1714822;28;20589;-66
2023/03/10 06:17:48;;;;;;;4.35;0.93;;;10.00;97.20;;;;;;1714787;28;20197;-66
2023/03/10 06:18:38;;;;;;;2.13;0.88;;;10.00;97.20;;;;;;1714455;28;20208;-67
2023/03/10 06:19:30;;;;;;;2.70;1.00;;;10.00;97.20;;;;;;1714479;28;20208;-66
2023/03/10 06:20:21;;;;;;;2.42;0.70;;;10.00;97.20;;;;;;1714664;28;20209;-66
2023/03/10 06:21:14;;;;;;;2.77;0.90;;;10.00;97.20;;;;;;1714766;28;20261;-67
2023/03/10 06:22:05;;;;;;;2.30;0.77;;;9.90;97.20;;;;;;1714660;28;20582;-65
2023/03/10 06:22:57;;;;;;;1.70;0.80;;;9.90;97.20;;;;;;1714759;28;20575;-67
2023/03/10 06:23:48;;;;;;;1.88;0.90;;;9.90;97.20;;;;;;1714684;28;20197;-66
2023/03/10 06:24:39;;;;;;;1.90;1.00;;;9.90;97.20;;;;;;1714714;28;20678;-66
2023/03/10 06:25:30;;;;;;;2.55;0.88;;;9.80;97.20;;;;;;1714647;28;20442;-67
2023/03/10 06:26:23;;;;;;;1.23;0.90;;;9.80;97.20;;;;;;1714843;28;20201;-66
2023/03/10 06:27:13;;;;;;;2.13;0.90;;;9.80;97.20;;;;;;1714688;28;20210;-66
2023/03/10 06:28:05;;;;;;;1.73;0.83;;;9.80;97.20;;;;;;1714663;28;20212;-67
2023/03/10 06:28:56;;;;;;;2.35;0.75;;;9.80;97.20;;;;;;1710856;28;20224;-66
2023/03/10 06:29:48;;;;;;;1.63;1.10;;;9.80;97.20;;;;;;1707860;28;20199;-65
2023/03/10 06:30:39;;;;;;;2.70;1.02;;;9.80;97.20;;;;;;1707729;28;20329;-66
2023/03/10 06:31:32;;;;;;;1.73;0.80;;;9.80;97.20;;;;;;1707948;28;20205;-66
2023/03/10 06:32:23;;;;;;;1.42;0.80;;;9.80;97.20;;;;;;1707981;28;20606;-66
2023/03/10 06:33:15;;;;;;;1.27;0.70;;;9.80;97.20;;;;;;1708005;28;20606;-66
2023/03/10 06:34:06;;;;;;;1.60;1.00;;;9.80;97.20;;;;;;1707970;28;20218;-66
2023/03/10 06:34:58;;;;;;;1.25;0.63;;;9.80;97.20;;;;;;1707997;28;20210;-65
2023/03/10 06:35:49;;;;;;;1.88;0.85;;;9.80;97.20;;;;;;1707997;28;20210;-66
2023/03/10 06:36:42;;;;;;;1.10;0.80;;;9.80;97.20;;;;;;1708032;28;20205;-66
2023/03/10 06:37:33;;;;;;;9.45;8.55;;;9.80;97.20;;;;;;1707936;28;20206;-66
2023/03/10 06:38:25;;;;;;;1.90;1.10;;;9.80;97.20;;;;;;1708018;28;20204;-66
2023/03/10 06:39:15;;;;;;;0.80;0.60;;;9.80;97.20;;;;;;1712800;28;20198;-66
2023/03/10 06:40:11;;;;;;;2.47;1.10;;;9.80;97.20;;;;;;1714279;28;20648;-66
2023/03/10 06:41:02;;;;;;;1.08;0.70;;;9.80;97.20;;;;;;1714600;28;20509;-66
2023/03/10 06:41:54;;;;;;;2.25;0.70;;;9.80;97.20;;;;;;1714655;28;20206;-66
2023/03/10 06:42:45;;;;;;;1.00;0.60;;;9.80;97.20;;;;;;1714431;28;20253;-66
2023/03/10 06:43:37;;;;;;;2.13;1.33;;;9.80;97.20;;;;;;1713835;28;20190;-66
2023/03/10 06:44:28;;;;;;;1.58;0.80;;;9.80;97.20;;;;;;1714540;28;20456;-66
2023/03/10 06:45:19;;;;;;;1.40;1.03;;;9.80;97.20;;;;;;1714734;28;20212;-67
2023/03/10 06:46:11;;;;;;;2.15;1.02;;;9.80;97.20;;;;;;1714634;28;20209;-66
2023/03/10 06:47:04;;;;;;;1.15;1.00;;;9.80;97.20;;;;;;1714554;28;20213;-70
2023/03/10 06:47:55;;;;;;;1.17;0.98;;;9.80;97.20;;;;;;1714601;28;20210;-67
2023/03/10 06:48:47;;;;;;;1.60;0.83;;;9.80;97.20;;;;;;1712976;28;20210;-66
2023/03/10 06:49:38;;;;;;;0.98;0.80;;;9.80;97.20;;;;;;1707865;28;20209;-67
2023/03/10 06:50:29;;;;;;;1.27;0.73;;;9.80;97.20;;;;;;1707833;28;20213;-66
2023/03/10 06:51:20;;;;;;;1.27;1.10;;;9.90;97.20;;;;;;1707876;28;20234;-67
2023/03/10 06:52:12;;;;;;;2.33;0.85;;;9.90;97.20;;;;;;1707125;28;20221;-67
2023/03/10 06:53:04;;;;;;;0.90;0.70;;;9.90;97.20;;;;;;1709273;28;20583;-68
2023/03/10 06:53:56;;;;;;;1.23;0.90;;;9.90;97.20;;;;;;1713978;28;20663;-68
2023/03/10 06:54:47;;;;;;;1.00;0.70;;;9.90;97.20;;;;;;1714041;28;20206;-68
2023/03/10 06:55:38;;;;;;;1.97;0.80;;;10.00;97.20;;;;;;1714142;28;20206;-66
2023/03/10 06:56:29;;;;;;;1.40;0.70;;;10.00;97.20;;;;;;1714179;28;20623;-67
2023/03/10 06:57:21;;;;;;;1.90;0.70;;;10.10;97.20;;;;;;1714157;28;20202;-67
2023/03/10 06:58:12;;;;;;;0.80;0.70;;;10.10;97.20;;;;;;1710201;28;20202;-67
2023/03/10 06:59:03;;;;;;;0.87;0.80;;;10.20;97.20;;;;;;1709690;28;20209;-66
2023/03/10 06:59:54;;;;;;;1.23;0.52;;;10.20;97.20;;;;;;1714195;28;20216;-67
2023/03/10 07:00:46;;;;;;;1.10;0.63;;;10.20;97.20;;;;;;1713742;28;20310;-67
2023/03/10 07:01:37;;;;;;;1.42;0.70;;;10.20;97.20;;;;;;1713714;28;20204;-66
2023/03/10 07:02:30;;;;;;;0.97;0.60;;;10.30;97.20;;;;;;1713982;28;20216;-66
2023/03/10 07:03:20;;;;;;;1.73;0.90;;;10.40;97.20;;;;;;1713680;28;20206;-66
2023/03/10 07:04:13;;;;;;;1.40;1.30;;;10.40;97.20;;;;;;1713808;28;20198;-67
2023/03/10 07:05:04;;;;;;;1.20;1.10;;;10.40;97.20;;;;;;1713818;28;20213;-66
2023/03/10 07:05:57;;;;;;;1.48;1.20;;;10.50;97.20;;;;;;1714480;28;20216;-66
2023/03/10 07:06:47;;;;;;;1.35;0.93;;;10.50;97.20;;;;;;1714397;28;20551;-65
2023/03/10 07:07:39;;;;;;;3.73;1.03;;;10.60;97.20;;;;;;1714348;28;20639;-66
2023/03/10 07:08:30;;;;;;;1.20;0.80;;;10.60;97.20;;;;;;1713128;28;20225;-66
2023/03/10 07:09:22;;;;;;;0.80;0.67;;;10.60;97.20;;;;;;1708092;28;20210;-66
2023/03/10 07:10:14;;;;;;;1.63;0.80;;;10.70;97.20;;;;;;1707036;28;20225;-67
2023/03/10 07:11:06;;;;;;;1.23;0.77;;;10.70;97.20;;;;;;1707553;28;20206;-66
2023/03/10 07:11:57;;;;;;;0.80;0.65;;;10.70;97.20;;;;;;1708147;28;20582;-66
2023/03/10 07:12:53;;;;;;;0.90;0.60;;;10.70;97.20;;;;;;1709656;28;20202;-67
2023/03/10 07:13:44;;;;;;;1.20;0.60;;;10.70;97.20;;;;;;1707591;28;20230;-67
2023/03/10 07:14:36;;;;;;;0.80;0.60;;;10.70;97.20;;;;;;1707592;28;20230;-67
2023/03/10 07:15:27;;;;;;;1.60;0.60;;;10.70;97.20;;;;;;1709345;28;20209;-67
2023/03/10 07:16:18;;;;;;;0.73;0.60;;;10.70;97.20;;;;;;1714190;28;20301;-68
2023/03/10 07:17:09;;;;;;;1.48;1.13;;;10.70;97.20;;;;;;1713974;28;21001;-67
2023/03/10 07:18:02;;;;;;;0.80;0.60;;;10.70;97.20;;;;;;1713617;28;20581;-67
2023/03/10 07:18:53;;;;;;;0.90;0.60;;;10.70;97.20;;;;;;1712820;28;20687;-67
2023/03/10 07:19:45;;;;;;;1.10;0.70;;;10.70;97.20;;;;;;1713396;28;20587;-67
2023/03/10 07:20:38;;;;;;;1.00;0.90;;;10.70;97.20;;;;;;1713451;28;20843;-67
2023/03/10 07:21:30;;;;;;;1.45;0.60;;;10.80;97.20;;;;;;1713494;28;20272;-67
2023/03/10 07:22:21;;;;;;;0.90;0.80;;;10.80;97.20;;;;;;1713650;28;20212;-67
2023/03/10 07:23:14;;;;;;;1.90;0.70;;;10.80;97.20;;;;;;1713741;28;20205;-67
2023/03/10 07:24:05;;;;;;;2.40;0.80;;;10.80;97.20;;;;;;1713614;28;20201;-67
2023/03/10 07:24:57;;;;;;;1.52;0.77;;;10.90;97.20;;;;;;1713750;28;20690;-68
2023/03/10 07:25:51;;;;;;;1.38;0.60;;;10.90;97.20;;;;;;1709130;28;20210;-68
2023/03/10 07:26:43;;;;;;;0.80;0.70;;;10.90;97.20;;;;;;1706982;28;20716;-67
2023/03/10 07:27:33;;;;;;;1.23;0.70;;;11.00;97.20;;;;;;1707011;28;20210;-67
2023/03/10 07:28:26;;;;;;;1.10;0.70;;;11.00;97.20;;;;;;1706885;28;20198;-69
2023/03/10 07:29:17;;;;;;;4.70;0.80;;;11.10;97.20;;;;;;1706889;28;20210;-70
2023/03/10 07:30:10;;;;;;;1.23;0.70;;;11.10;97.20;;;;;;1706687;28;20606;-70
2023/03/10 07:31:02;;;;;;;2.35;1.27;;;11.10;97.20;;;;;;1706245;28;20234;-70
2023/03/10 07:31:53;;;;;;;1.30;0.60;;;11.10;97.20;;;;;;1706586;28;20297;-70
2023/03/10 07:32:44;;;;;;;0.98;0.80;;;11.10;97.20;;;;;;1707436;28;20234;-69
2023/03/10 07:33:38;;;;;;;1.37;0.80;;;11.10;97.20;;;;;;1707636;28;20206;-70
2023/03/10 07:34:29;;;;;;;1.38;0.77;;;11.10;97.20;;;;;;1707659;28;20230;-70
2023/03/10 07:35:20;;;;;;;1.10;0.87;;;11.20;97.20;;;;;;1707613;28;20673;-70
2023/03/10 07:36:13;;;;;;;1.40;0.80;;;11.20;97.20;;;;;;1714303;28;20706;-70
2023/03/10 07:37:04;;;;;;;1.13;0.70;;;11.20;97.20;;;;;;1714259;28;20204;-70
2023/03/10 07:37:55;;;;;;;0.80;0.80;;;11.20;97.20;;;;;;1713976;28;20217;-66
2023/03/10 07:38:47;;;;;;;1.40;1.00;;;11.20;97.20;;;;;;1713877;28;20280;-67
2023/03/10 07:39:38;;;;;;;1.60;1.50;;;11.20;97.20;;;;;;1714133;28;20445;-67
2023/03/10 07:40:30;;;;;;;1.27;1.17;;;11.20;97.20;;;;;;1714147;28;20198;-67
2023/03/10 07:41:21;;;;;;;1.70;0.90;;;11.20;97.20;;;;;;1714230;28;20278;-67
2023/03/10 07:42:13;;;;;;;1.80;1.20;;;11.10;97.20;;;;;;1714219;28;20221;-68
2023/03/10 07:43:04;;;;;;;0.80;0.70;;;11.10;97.20;;;;;;1714215;28;20449;-67
2023/03/10 07:43:56;;;;;;;4.07;0.90;;;11.10;97.20;;;;;;1714291;28;20205;-67
2023/03/10 07:44:47;;;;;;;0.80;0.70;;;11.10;97.20;;;;;;1714163;28;20682;-67
2023/03/10 07:45:39;;;;;;;1.40;0.77;;;11.10;97.20;;;;;;1711515;28;20634;-67
2023/03/10 07:46:30;;;;;;;1.92;0.95;;;11.10;97.20;;;;;;1707561;28;20221;-67
2023/03/10 07:47:21;;;;;;;1.17;1.08;;;11.10;97.20;;;;;;1707580;28;20293;-68
2023/03/10 07:48:12;;;;;;;4.07;1.38;;;11.10;97.20;;;;;;1707516;28;20222;-67
2023/03/10 07:49:05;;;;;;;2.00;0.97;;;11.20;97.20;;;;;;1707221;28;20199;-67
2023/03/10 07:49:56;;;;;;;1.75;0.98;;;11.20;97.20;;;;;;1707534;28;20213;-67
2023/03/10 07:50:55;;;;;;;1.37;0.83;;;11.20;97.20;;;;;;1707475;28;20233;-67
2023/03/10 07:51:46;;;;;;;1.35;0.80;;;11.20;97.20;;;;;;1707626;28;20281;-66
2023/03/10 07:52:38;;;;;;;0.77;0.70;;;11.20;97.20;;;;;;1707606;28;20246;-67
2023/03/10 07:53:29;;;;;;;0.80;0.70;;;11.20;97.20;;;;;;1707578;28;20257;-67
2023/03/10 07:54:21;;;;;;;1.13;0.90;;;11.20;97.20;;;;;;1707352;28;20234;-67
2023/03/10 07:55:12;;;;;;;1.20;1.10;;;11.20;97.20;;;;;;1707457;28;20240;-67
2023/03/10 07:56:05;;;;;;;2.03;1.05;;;11.20;97.20;;;;;;1708423;28;20629;-67
2023/03/10 07:56:56;;;;;;;3.42;0.95;;;11.20;97.20;;;;;;1707557;28;20664;-67
2023/03/10 07:57:48;;;;;;;1.75;1.10;;;11.20;97.20;;;;;;1707449;28;20676;-67
2023/03/10 07:58:39;;;;;;;3.65;2.15;;;11.30;97.20;;;;;;1707221;28;20205;-67
2023/03/10 07:59:31;;;;;;;3.13;1.08;;;11.30;97.20;;;;;;1707426;28;20233;-67
2023/03/10 08:00:22;;;;;;;1.45;0.77;;;11.30;97.20;;;;;;1707317;28;20235;-67
2023/03/10 08:01:16;;;;;;;3.13;0.90;;;11.30;97.20;;;;;;1707530;28;20487;-67
2023/03/10 08:02:10;;;;;;;1.35;0.73;;;11.30;97.20;;;;;;1707410;28;20450;-67
2023/03/10 08:03:02;;;;;;;0.80;0.70;;;11.30;97.20;;;;;;1707458;28;20286;-67
2023/03/10 08:03:53;;;;;;;0.80;0.70;;;11.30;97.20;;;;;;1707491;28;20207;-68
2023/03/10 08:04:46;;;;;;;2.13;1.50;;;11.30;97.20;;;;;;1707464;28;20226;-68
2023/03/10 08:05:39;;;;;;;1.90;1.35;;;11.20;97.20;;;;;;1708387;28;20202;-67
2023/03/10 08:06:33;;;;;;;2.13;0.93;;;11.20;97.20;;;;;;1714086;28;20249;-67
2023/03/10 08:07:26;;;;;;;1.40;1.30;;;11.20;97.20;;;;;;1714065;28;20202;-67
2023/03/10 08:08:18;;;;;;;2.55;1.90;;;11.20;97.20;;;;;;1714122;28;20206;-67
2023/03/10 08:09:10;;;;;;;3.28;1.70;;;11.10;97.20;;;;;;1713617;28;20216;-68
2023/03/10 08:10:00;;;;;;;3.20;1.60;;;11.20;97.20;;;;;;1714117;28;20209;-67
2023/03/10 08:11:00;;;;;;;2.30;1.40;;;11.10;97.20;;;;;;1714006;28;20217;-67
2023/03/10 08:11:51;;;;;;;1.65;1.45;;;11.10;97.20;;;;;;1714147;28;20213;-67
2023/03/10 08:12:42;;;;;;;2.30;1.20;;;11.10;97.20;;;;;;1714021;28;20194;-67
2023/03/10 08:13:33;;;;;;;2.03;1.20;;;11.00;97.20;;;;;;1714126;28;20227;-68
2023/03/10 08:14:25;;;;;;;1.80;0.83;;;11.00;97.20;;;;;;1713952;28;20236;-67
2023/03/10 08:15:16;;;;;;;1.10;0.63;;;10.80;97.20;;;;;;1714016;28;20210;-67
2023/03/10 08:16:08;;;;;;;2.20;0.80;;;10.80;97.20;;;;;;1708913;28;20218;-67
2023/03/10 08:16:59;;;;;;;2.53;0.93;;;10.70;97.20;;;;;;1707489;28;20446;-67
2023/03/10 08:17:51;;;;;;;1.10;0.70;;;10.50;97.20;;;;;;1707441;28;20203;-67
2023/03/10 08:18:42;;;;;;;1.10;0.70;;;10.50;97.20;;;;;;1707187;28;20445;-67
2023/03/10 08:19:34;;;;;;;6.57;0.63;;;10.40;97.20;;;;;;1707325;28;20212;-66
2023/03/10 08:20:26;;;;;;;1.40;0.65;;;10.30;97.20;;;;;;1707237;28;20217;-67
2023/03/10 08:21:18;;;;;;;1.10;0.60;;;10.20;97.20;;;;;;1707416;28;20265;-67
2023/03/10 08:22:09;;;;;;;1.40;0.60;;;10.20;97.20;;;;;;1707431;28;20206;-67
2023/03/10 08:23:01;;;;;;;1.20;0.77;;;10.10;97.20;;;;;;1707436;28;20206;-68
2023/03/10 08:23:51;;;;;;;3.17;0.73;;;10.00;97.20;;;;;;1707289;28;20739;-67
2023/03/10 08:24:43;;;;;;;1.27;0.70;;;10.00;97.20;;;;;;1707379;28;20564;-66
2023/03/10 08:25:34;;;;;;;4.85;0.95;;;10.00;97.20;;;;;;1707737;28;20207;-67
2023/03/10 08:26:26;;;;;;;1.10;0.60;;;10.00;97.20;;;;;;1714080;28;20293;-67
2023/03/10 08:27:16;;;;;;;2.00;0.70;;;9.90;97.20;;;;;;1714073;28;20213;-67
2023/03/10 08:28:08;;;;;;;2.03;1.10;;;10.00;97.20;;;;;;1714025;28;20208;-67
2023/03/10 08:28:59;;;;;;;1.50;0.50;;;10.00;97.20;;;;;;1713657;28;20206;-67
2023/03/10 08:29:51;;;;;;;1.37;0.77;;;10.00;97.20;;;;;;1713940;28;20208;-67
2023/03/10 08:30:41;;;;;;;1.48;0.70;;;10.00;97.20;;;;;;1713404;28;20241;-67
2023/03/10 08:31:33;;;;;;;1.40;0.50;;;10.00;97.20;;;;;;1713989;28;20202;-67
2023/03/10 08:32:24;;;;;;;1.90;0.57;;;10.00;97.20;;;;;;1711680;28;20453;-67
2023/03/10 08:33:16;;;;;;;1.03;0.60;;;9.90;97.20;;;;;;1707364;28;20679;-67
2023/03/10 08:34:06;;;;;;;1.42;0.80;;;10.00;97.20;;;;;;1707248;28;20215;-67
2023/03/10 08:34:58;;;;;;;2.03;0.80;;;9.90;97.20;;;;;;1707419;28;20214;-67
2023/03/10 08:35:59;;;;;;;1.73;1.00;;;9.90;97.20;;;;;;1707264;28;20210;-66
2023/03/10 08:36:51;;;;;;;1.17;0.80;;;9.90;97.20;;;;;;1707317;28;20210;-67
2023/03/10 08:37:42;;;;;;;0.90;0.55;;;10.00;97.20;;;;;;1707387;28;20211;-67
2023/03/10 08:38:34;;;;;;;0.80;0.60;;;9.90;97.20;;;;;;1706981;28;20294;-67
2023/03/10 08:39:24;;;;;;;0.80;0.60;;;10.00;97.20;;;;;;1707236;28;20202;-67
2023/03/10 08:40:16;;;;;;;1.57;0.50;;;10.00;97.20;;;;;;1707202;28;20213;-67
2023/03/10 08:41:09;;;;;;;1.30;0.70;;;9.90;97.20;;;;;;1707395;28;20645;-67
2023/03/10 08:42:01;;;;;;;2.13;1.00;;;9.90;97.20;;;;;;1707320;28;20624;-67
2023/03/10 08:42:52;;;;;;;2.20;0.90;;;10.00;97.20;;;;;;1712610;28;20198;-67
2023/03/10 08:43:44;;;;;;;1.10;0.70;;;10.00;97.20;;;;;;1714488;28;20219;-67
2023/03/10 08:44:35;;;;;;;0.90;0.50;;;10.00;97.20;;;;;;1715421;28;20587;-67
2023/03/10 08:45:27;;;;;;;1.30;0.60;;;10.00;97.20;;;;;;1715299;28;20568;-67
2023/03/10 08:46:20;;;;;;;0.90;0.70;;;10.00;97.20;;;;;;1715347;28;20201;-67
2023/03/10 08:47:12;;;;;;;1.10;0.60;;;10.00;97.20;;;;;;1715287;28;20243;-67
2023/03/10 08:48:02;;;;;;;1.52;0.70;;;10.00;97.20;;;;;;1715319;28;20205;-67
2023/03/10 08:48:54;;;;;;;1.63;0.83;;;10.10;97.20;;;;;;1715108;28;20289;-67
2023/03/10 08:49:45;;;;;;;2.13;0.88;;;10.20;97.20;;;;;;1715236;28;20205;-67
2023/03/10 08:50:37;;;;;;;1.15;0.70;;;10.40;97.20;;;;;;1715237;28;20438;-67
2023/03/10 08:51:29;;;;;;;1.00;0.70;;;10.70;97.20;;;;;;1715262;28;20706;-67
2023/03/10 08:52:21;;;;;;;1.40;0.82;;;11.00;97.20;;;;;;1713799;28;20216;-67
2023/03/10 08:53:12;;;;;;;2.13;1.02;;;11.30;97.20;;;;;;1708539;28;20209;-67
2023/03/10 08:54:04;;;;;;;0.90;0.80;;;11.50;97.20;;;;;;1708666;28;20665;-67
2023/03/10 08:54:54;;;;;;;2.55;1.15;;;11.80;97.20;;;;;;1708584;28;20230;-67
2023/03/10 08:55:47;;;;;;;2.17;0.97;;;12.00;97.20;;;;;;1708606;28;20206;-67
2023/03/10 08:56:38;;;;;;;1.15;0.70;;;12.20;97.20;;;;;;1708650;28;20210;-67
2023/03/10 08:57:30;;;;;;;3.57;0.90;;;12.40;97.20;;;;;;1708532;28;20207;-68
2023/03/10 08:58:22;;;;;;;1.05;0.70;;;12.50;97.20;;;;;;1708608;28;20461;-67
2023/03/10 08:59:14;;;;;;;1.73;0.80;;;12.60;97.20;;;;;;1708195;28;20195;-68
2023/03/10 09:00:06;;;;;;;1.85;0.90;;;12.80;97.20;;;;;;1708582;28;20202;-67
2023/03/10 09:00:58;;;;;;;1.23;0.80;;;12.90;97.20;;;;;;1708489;28;20762;-67
2023/03/10 09:01:49;;;;;;;1.83;0.80;;;13.00;97.20;;;;;;1708524;28;20206;-67
2023/03/10 09:02:40;;;;;;;1.90;1.03;;;13.10;97.20;;;;;;1711959;28;20194;-66
2023/03/10 09:03:35;;;;;;;3.70;0.90;;;13.30;97.20;;;;;;1715206;28;20205;-67
2023/03/10 09:04:26;;;;;;;2.35;1.05;;;13.40;97.20;;;;;;1715143;28;20590;-67
2023/03/10 09:05:17;;;;;;;1.52;0.90;;;13.40;97.20;;;;;;1715247;28;20612;-67
2023/03/10 09:06:09;;;;;;;1.80;0.80;;;13.50;97.20;;;;;;1715149;28;20585;-67
2023/03/10 09:07:01;;;;;;;1.52;0.90;;;13.50;97.20;;;;;;1715172;28;20214;-67
2023/03/10 09:07:53;;;;;;;1.77;0.80;;;13.50;97.20;;;;;;1715122;28;20209;-67
2023/03/10 09:08:44;;;;;;;2.75;0.90;;;13.50;97.20;;;;;;1714837;28;20202;-67
2023/03/10 09:09:36;;;;;;;1.20;0.70;;;13.50;97.20;;;;;;1715131;28;20198;-67
2023/03/10 09:10:27;;;;;;;2.88;1.10;;;13.60;97.20;;;;;;1715078;28;20206;-67
2023/03/10 09:11:26;;;;;;;1.30;0.80;;;13.70;97.20;;;;;;1715264;28;20208;-67
2023/03/10 09:12:17;;;;;;;2.38;0.95;;;13.80;97.20;;;;;;1714508;28;20199;-68
2023/03/10 09:13:10;;;;;;;1.40;0.80;;;14.00;97.20;;;;;;1708446;28;20206;-67
2023/03/10 09:14:01;;;;;;;1.65;0.85;;;14.20;97.20;;;;;;1708487;28;20218;-67
2023/03/10 09:14:53;;;;;;;2.00;0.80;;;14.30;97.20;;;;;;1708406;28;20248;-67
2023/03/10 09:15:44;;;;;;;1.73;0.80;;;14.40;97.20;;;;;;1708499;28;20668;-67
2023/03/10 09:16:36;;;;;;;1.50;1.03;;;14.50;97.20;;;;;;1708567;28;20674;-67
2023/03/10 09:17:27;;;;;;;1.73;0.88;;;14.70;97.20;;;;;;1708466;28;20426;-66
2023/03/10 09:18:19;;;;;;;2.00;1.00;;;14.80;97.20;;;;;;1708462;28;20206;-68
2023/03/10 09:19:09;;;;;;;3.15;1.30;;;14.90;97.20;;;;;;1708062;28;20213;-67
2023/03/10 09:20:01;;;;;;;2.07;0.90;;;15.00;97.20;;;;;;1708466;28;20684;-67
2023/03/10 09:20:52;;;;;;;2.10;0.85;;;15.10;97.20;;;;;;1708558;28;20218;-67
2023/03/10 09:21:44;;;;;;;4.33;0.90;;;15.20;97.20;;;;;;1708417;28;20203;-67
2023/03/10 09:22:36;;;;;;;3.17;0.75;;;15.10;97.20;;;;;;1708398;28;20257;-67
2023/03/10 09:23:28;;;;;;;1.70;0.80;;;15.10;97.20;;;;;;1708408;28;20222;-67
2023/03/10 09:24:19;;;;;;;1.55;0.70;;;15.10;97.20;;;;;;1708507;28;20241;-67
2023/03/10 09:25:11;;;;;;;1.93;0.93;;;15.00;97.20;;;;;;1708407;28;20199;-67
2023/03/10 09:26:02;;;;;;;1.65;0.70;;;15.10;97.20;;;;;;1708475;28;20461;-67
2023/03/10 09:26:54;;;;;;;2.90;0.83;;;15.10;97.20;;;;;;1708377;28;20205;-67
2023/03/10 09:27:45;;;;;;;1.50;0.70;;;15.10;97.20;;;;;;1708384;28;21011;-67
2023/03/10 09:28:37;;;;;;;2.17;0.60;;;15.00;97.20;;;;;;1708161;28;20226;-67
2023/03/10 09:29:31;;;;;;;1.98;0.80;;;15.00;97.20;;;;;;1708360;28;20233;-68
2023/03/10 09:30:21;;;;;;;1.75;0.70;;;14.80;97.20;;;;;;1709647;28;20206;-67
2023/03/10 09:31:17;;;;;;;2.60;0.80;;;14.80;97.20;;;;;;1714807;28;20208;-67
2023/03/10 09:32:08;;;;;;;1.52;0.73;;;14.70;97.20;;;;;;1714459;28;20927;-67
2023/03/10 09:33:00;;;;;;;1.60;0.90;;;14.50;97.20;;;;;;1715040;28;20612;-67
2023/03/10 09:33:50;;;;;;;2.10;0.85;;;14.40;97.20;;;;;;1715059;28;20206;-67
2023/03/10 09:34:42;;;;;;;6.00;1.23;;;14.20;97.20;;;;;;1714561;28;20190;-67
2023/03/10 09:35:33;;;;;;;2.83;0.80;;;14.00;97.20;;;;;;1715073;28;20213;-67
2023/03/10 09:36:25;;;;;;;6.13;0.80;;;13.90;97.20;;;;;;1715018;28;20205;-66
2023/03/10 09:37:15;;;;;;;2.25;0.90;;;13.80;97.20;;;;;;1714995;28;20448;-67
2023/03/10 09:38:08;;;;;;;1.47;0.80;;;13.60;97.20;;;;;;1715025;28;20289;-67
2023/03/10 09:39:01;;;;;;;3.67;0.75;;;13.50;97.20;;;;;;1714694;28;20449;-70
2023/03/10 09:39:52;;;;;;;4.13;1.20;;;13.30;97.20;;;;;;1714917;28;20571;-70
2023/03/10 09:40:48;;;;;;;3.85;0.70;;;13.20;97.20;;;;;;1709922;28;20666;-69
2023/03/10 09:42:10;;;;;;;2.20;1.00;;;13.10;97.20;;;;;;1708471;28;20213;-70
2023/03/10 09:43:03;;;;;;;2.05;1.02;;;13.10;97.20;;;;;;1708381;28;20218;-70
2023/03/10 09:44:01;;;;;;;3.08;1.17;;;13.00;97.20;;;;;;1708339;28;20656;-69
2023/03/10 09:45:00;;;;;;;2.10;1.02;;;12.90;97.20;;;;;;1708372;28;20203;-69
2023/03/10 09:45:59;;;;;;;2.20;0.95;;;12.90;97.20;;;;;;1708322;28;20293;-69
2023/03/10 09:47:01;;;;;;;1.92;0.70;;;12.90;97.20;;;;;;1708280;28;20203;-69
2023/03/10 09:48:05;;;;;;;2.70;1.15;;;12.80;97.20;;;;;;1708301;28;20198;-69
2023/03/10 09:49:03;;;;;;;1.30;1.00;;;12.70;97.20;;;;;;1707963;28;20207;-69
2023/03/10 09:50:12;;;;;;;3.13;1.35;;;12.70;97.20;;;;;;1708285;28;20245;-70
2023/03/10 09:51:13;;;;;;;3.00;0.95;;;12.60;97.20;;;;;;1708418;28;20207;-70
2023/03/10 09:52:17;;;;;;;1.52;0.90;;;12.50;97.20;;;;;;1708202;28;20211;-70
2023/03/10 09:53:25;;;;;;;2.25;0.77;;;12.50;97.20;;;;;;1708264;28;20214;-69
2023/03/10 09:54:34;;;;;;;5.10;1.17;;;12.50;97.20;;;;;;1707883;28;20214;-70
2023/03/10 09:55:27;;;;;;;2.50;0.90;;;12.40;97.20;;;;;;1708186;28;20226;-70
2023/03/10 09:56:22;;;;;;;5.22;1.02;;;12.50;97.20;;;;;;1708258;28;20194;-70
2023/03/10 09:57:16;;;;;;;2.45;0.80;;;12.50;97.20;;;;;;1708309;28;20556;-70
2023/03/10 09:58:12;;;;;;;3.35;1.05;;;12.50;97.20;;;;;;1708240;28;20231;-69
2023/03/10 09:59:10;;;;;;;2.30;0.77;;;12.60;97.20;;;;;;1707934;28;20217;-70
2023/03/10 10:00:07;;;;;;;1.75;0.98;;;12.60;97.20;;;;;;1708290;28;20625;-69
2023/03/10 10:00:59;;;;;;;3.10;1.10;;;12.80;97.20;;;;;;1708027;28;20226;-69
2023/03/10 10:01:52;;;;;;;2.08;1.20;;;13.00;97.20;;;;;;1708170;28;20261;-69
2023/03/10 10:02:46;;;;;;;2.63;0.90;;;13.20;97.20;;;;;;1708198;28;20214;-70
2023/03/10 10:03:43;;;;;;;2.53;1.15;;;13.50;97.20;;;;;;1708268;28;20203;-70
2023/03/10 10:04:38;;;;;;;1.90;0.95;;;13.80;97.20;;;;;;1708306;28;20221;-70
2023/03/10 10:05:33;;;;;;;1.48;0.98;;;14.00;97.20;;;;;;1708170;28;20606;-69
2023/03/10 10:06:27;;;;;;;1.33;0.90;;;14.10;97.20;;;;;;1708218;28;20217;-70
2023/03/10 10:07:22;;;;;;;1.70;0.80;;;14.10;97.20;;;;;;1708204;28;20214;-69
2023/03/10 10:08:22;;;;;;;1.67;0.60;;;14.00;97.20;;;;;;1708269;28;20602;-70
2023/03/10 10:09:20;;;;;;;2.45;1.00;;;13.90;97.20;;;;;;1707788;28;20199;-70
2023/03/10 10:10:17;;;;;;;1.77;0.70;;;13.70;97.20;;;;;;1707944;28;20645;-70
2023/03/10 10:11:14;;;;;;;1.27;0.73;;;13.60;97.20;;;;;;1707983;28;20202;-70
2023/03/10 10:12:10;;;;;;;2.47;0.98;;;13.50;97.20;;;;;;1708144;28;20213;-69
2023/03/10 10:13:11;;;;;;;1.38;0.70;;;13.40;97.20;;;;;;1707846;28;20581;-69
2023/03/10 10:14:14;;;;;;;4.88;0.88;;;13.30;97.20;;;;;;1708201;28;20207;-69
2023/03/10 10:15:17;;;;;;;1.20;0.60;;;13.20;97.20;;;;;;1708048;28;20234;-70
2023/03/10 10:16:20;;;;;;;2.25;0.88;;;13.10;97.20;;;;;;1708126;28;20207;-70
2023/03/10 10:17:23;;;;;;;2.10;0.70;;;12.90;97.20;;;;;;1708126;28;20669;-69
2023/03/10 10:18:22;;;;;;;2.10;0.80;;;12.80;97.20;;;;;;1708146;28;20685;-70
2023/03/10 10:19:18;;;;;;;1.85;0.80;;;12.70;97.20;;;;;;1707718;28;20724;-70
2023/03/10 10:20:19;;;;;;;2.38;0.65;;;12.60;97.20;;;;;;1708095;28;20505;-70
2023/03/10 10:21:15;;;;;;;2.95;0.70;;;12.60;97.20;;;;;;1708036;28;20581;-70
2023/03/10 10:22:13;;;;;;;0.80;0.52;;;12.50;97.20;;;;;;1708085;28;20211;-70
2023/03/10 10:23:23;;;;;;;1.63;0.60;;;12.50;97.20;;;;;;1708112;28;20207;-70
2023/03/10 10:24:17;;;;;;;1.27;0.68;;;12.50;97.20;;;;;;1708098;28;20214;-69
2023/03/10 10:25:17;;;;;;;2.42;1.10;;;12.50;97.20;;;;;;1708116;28;20677;-70
2023/03/10 10:26:12;;;;;;;1.98;0.82;;;12.50;97.20;;;;;;1708029;28;20210;-70
2023/03/10 10:27:03;;;;;;;2.10;0.73;;;12.60;97.20;;;;;;1708052;28;20210;-70
2023/03/10 10:27:55;;;;;;;1.50;0.70;;;12.60;97.20;;;;;;1708062;28;20732;-69
2023/03/10 10:28:50;;;;;;;1.75;0.90;;;12.70;97.20;;;;;;1707707;28;20661;-69
2023/03/10 10:29:42;;;;;;;2.47;0.80;;;12.70;97.20;;;;;;1708020;28;20238;-69
2023/03/10 10:30:36;;;;;;;2.15;0.80;;;12.80;97.20;;;;;;1710145;28;20242;-70
2023/03/10 10:31:29;;;;;;;1.10;0.80;;;12.80;97.20;;;;;;1714560;28;20210;-69
2023/03/10 10:32:20;;;;;;;1.10;0.80;;;12.70;97.20;;;;;;1714755;28;20202;-70
2023/03/10 10:33:13;;;;;;;1.80;0.70;;;12.70;97.20;;;;;;1714711;28;20208;-70
2023/03/10 10:34:07;;;;;;;1.95;1.00;;;12.70;97.20;;;;;;1714592;28;20221;-69
2023/03/10 10:35:13;;;;;;;2.65;0.90;;;12.60;97.20;;;;;;1714640;28;20244;-70
2023/03/10 10:36:05;;;;;;;1.70;0.70;;;12.60;97.20;;;;;;1714652;28;20585;-70